sensor_id;sensor_type;location;lat;lon;timestamp;P1;durP1;ratioP1;P2;durP2;ratioP2
62941;SDS011;49042;47.318;19.874;2023-05-07T00:02:58;12.20;;;9.70;;
62941;SDS011;49042;47.318;19.874;2023-05-07T00:06:00;11.40;;;10.15;;
62941;SDS011;49042;47.318;19.874;2023-05-07T00:09:02;14.15;;;9.88;;
62941;SDS011;49042;47.318;19.874;2023-05-07T00:12:05;13.88;;;9.25;;
62941;SDS011;49042;47.318;19.874;2023-05-07T00:15:07;14.48;;;10.18;;
62941;SDS011;49042;47.318;19.874;2023-05-07T00:18:11;12.80;;;10.10;;
62941;SDS011;49042;47.318;19.874;2023-05-07T00:21:12;14.65;;;10.05;;
62941;SDS011;49042;47.318;19.874;2023-05-07T00:24:14;17.92;;;9.90;;
62941;SDS011;49042;47.318;19.874;2023-05-07T00:27:16;12.13;;;9.65;;
62941;SDS011;49042;47.318;19.874;2023-05-07T00:30:18;12.90;;;9.38;;
62941;SDS011;49042;47.318;19.874;2023-05-07T00:33:21;11.15;;;8.65;;
62941;SDS011;49042;47.318;19.874;2023-05-07T00:36:23;10.85;;;8.75;;
62941;SDS011;49042;47.318;19.874;2023-05-07T00:39:25;12.00;;;9.10;;
62941;SDS011;49042;47.318;19.874;2023-05-07T00:42:27;12.20;;;8.90;;
62941;SDS011;49042;47.318;19.874;2023-05-07T00:45:29;11.73;;;8.82;;
62941;SDS011;49042;47.318;19.874;2023-05-07T00:48:32;11.73;;;8.98;;
62941;SDS011;49042;47.318;19.874;2023-05-07T00:51:34;12.32;;;8.40;;
62941;SDS011;49042;47.318;19.874;2023-05-07T00:54:35;13.25;;;8.65;;
62941;SDS011;49042;47.318;19.874;2023-05-07T00:57:38;13.30;;;9.52;;
62941;SDS011;49042;47.318;19.874;2023-05-07T01:00:41;15.25;;;8.80;;
62941;SDS011;49042;47.318;19.874;2023-05-07T01:03:43;10.52;;;9.07;;
62941;SDS011;49042;47.318;19.874;2023-05-07T01:06:45;13.07;;;8.80;;
62941;SDS011;49042;47.318;19.874;2023-05-07T01:09:49;12.55;;;9.93;;
62941;SDS011;49042;47.318;19.874;2023-05-07T01:12:54;13.80;;;9.68;;
62941;SDS011;49042;47.318;19.874;2023-05-07T01:15:56;12.50;;;9.77;;
62941;SDS011;49042;47.318;19.874;2023-05-07T01:18:58;10.98;;;9.32;;
62941;SDS011;49042;47.318;19.874;2023-05-07T01:22:03;14.18;;;9.90;;
62941;SDS011;49042;47.318;19.874;2023-05-07T01:25:09;14.65;;;10.13;;
62941;SDS011;49042;47.318;19.874;2023-05-07T01:28:11;12.85;;;9.85;;
62941;SDS011;49042;47.318;19.874;2023-05-07T01:31:13;12.35;;;9.70;;
62941;SDS011;49042;47.318;19.874;2023-05-07T01:34:17;15.32;;;10.65;;
62941;SDS011;49042;47.318;19.874;2023-05-07T01:37:20;12.57;;;9.77;;
62941;SDS011;49042;47.318;19.874;2023-05-07T01:40:23;13.45;;;10.05;;
62941;SDS011;49042;47.318;19.874;2023-05-07T01:43:26;13.98;;;10.07;;
62941;SDS011;49042;47.318;19.874;2023-05-07T01:46:29;13.55;;;10.38;;
62941;SDS011;49042;47.318;19.874;2023-05-07T01:49:33;14.13;;;10.55;;
62941;SDS011;49042;47.318;19.874;2023-05-07T01:52:38;14.05;;;9.68;;
62941;SDS011;49042;47.318;19.874;2023-05-07T01:55:40;15.20;;;10.60;;
62941;SDS011;49042;47.318;19.874;2023-05-07T01:58:42;14.30;;;10.77;;
62941;SDS011;49042;47.318;19.874;2023-05-07T02:01:43;15.13;;;10.65;;
62941;SDS011;49042;47.318;19.874;2023-05-07T02:04:45;13.38;;;10.20;;
62941;SDS011;49042;47.318;19.874;2023-05-07T02:07:47;12.15;;;10.15;;
62941;SDS011;49042;47.318;19.874;2023-05-07T02:10:49;15.43;;;11.85;;
62941;SDS011;49042;47.318;19.874;2023-05-07T02:13:52;14.15;;;10.32;;
62941;SDS011;49042;47.318;19.874;2023-05-07T02:16:54;14.48;;;10.70;;
62941;SDS011;49042;47.318;19.874;2023-05-07T02:19:56;22.42;;;12.25;;
62941;SDS011;49042;47.318;19.874;2023-05-07T02:22:58;15.60;;;10.68;;
62941;SDS011;49042;47.318;19.874;2023-05-07T02:26:00;16.10;;;11.10;;
62941;SDS011;49042;47.318;19.874;2023-05-07T02:29:01;19.73;;;12.37;;
62941;SDS011;49042;47.318;19.874;2023-05-07T02:32:03;14.45;;;11.35;;
62941;SDS011;49042;47.318;19.874;2023-05-07T02:35:05;17.10;;;11.57;;
62941;SDS011;49042;47.318;19.874;2023-05-07T02:38:07;14.63;;;11.45;;
62941;SDS011;49042;47.318;19.874;2023-05-07T02:41:11;14.55;;;11.27;;
62941;SDS011;49042;47.318;19.874;2023-05-07T02:44:13;13.25;;;10.50;;
62941;SDS011;49042;47.318;19.874;2023-05-07T02:47:15;17.52;;;11.18;;
62941;SDS011;49042;47.318;19.874;2023-05-07T02:50:17;14.13;;;10.77;;
62941;SDS011;49042;47.318;19.874;2023-05-07T02:53:18;14.73;;;11.10;;
62941;SDS011;49042;47.318;19.874;2023-05-07T02:56:20;14.95;;;10.18;;
62941;SDS011;49042;47.318;19.874;2023-05-07T02:59:22;15.35;;;10.75;;
62941;SDS011;49042;47.318;19.874;2023-05-07T03:02:24;13.02;;;10.80;;
62941;SDS011;49042;47.318;19.874;2023-05-07T03:05:26;18.23;;;10.75;;
62941;SDS011;49042;47.318;19.874;2023-05-07T03:08:28;13.95;;;10.68;;
62941;SDS011;49042;47.318;19.874;2023-05-07T03:11:29;16.92;;;10.85;;
62941;SDS011;49042;47.318;19.874;2023-05-07T03:14:31;14.50;;;10.15;;
62941;SDS011;49042;47.318;19.874;2023-05-07T03:17:33;17.67;;;10.98;;
62941;SDS011;49042;47.318;19.874;2023-05-07T03:20:35;14.77;;;11.10;;
62941;SDS011;49042;47.318;19.874;2023-05-07T03:23:38;13.23;;;10.63;;
62941;SDS011;49042;47.318;19.874;2023-05-07T03:26:40;15.25;;;11.27;;
62941;SDS011;49042;47.318;19.874;2023-05-07T03:29:41;13.98;;;10.98;;
62941;SDS011;49042;47.318;19.874;2023-05-07T03:32:43;13.32;;;11.63;;
62941;SDS011;49042;47.318;19.874;2023-05-07T03:35:45;15.60;;;11.52;;
62941;SDS011;49042;47.318;19.874;2023-05-07T03:38:48;13.95;;;11.07;;
62941;SDS011;49042;47.318;19.874;2023-05-07T03:45:10;16.15;;;11.40;;
62941;SDS011;49042;47.318;19.874;2023-05-07T03:48:18;14.57;;;11.18;;
62941;SDS011;49042;47.318;19.874;2023-05-07T03:51:32;12.45;;;9.73;;
62941;SDS011;49042;47.318;19.874;2023-05-07T03:57:59;17.62;;;11.07;;
62941;SDS011;49042;47.318;19.874;2023-05-07T04:01:04;18.50;;;13.43;;
62941;SDS011;49042;47.318;19.874;2023-05-07T04:04:06;16.42;;;12.13;;
62941;SDS011;49042;47.318;19.874;2023-05-07T04:07:12;15.63;;;11.35;;
62941;SDS011;49042;47.318;19.874;2023-05-07T04:13:38;13.30;;;10.65;;
62941;SDS011;49042;47.318;19.874;2023-05-07T04:19:51;14.70;;;11.18;;
62941;SDS011;49042;47.318;19.874;2023-05-07T04:22:56;14.60;;;11.70;;
62941;SDS011;49042;47.318;19.874;2023-05-07T04:26:19;15.75;;;11.02;;
62941;SDS011;49042;47.318;19.874;2023-05-07T04:32:34;13.82;;;10.98;;
62941;SDS011;49042;47.318;19.874;2023-05-07T04:35:44;14.70;;;11.25;;
62941;SDS011;49042;47.318;19.874;2023-05-07T04:38:48;14.10;;;10.85;;
62941;SDS011;49042;47.318;19.874;2023-05-07T04:41:53;14.43;;;11.43;;
62941;SDS011;49042;47.318;19.874;2023-05-07T04:48:24;17.42;;;11.10;;
62941;SDS011;49042;47.318;19.874;2023-05-07T04:51:32;15.65;;;10.75;;
62941;SDS011;49042;47.318;19.874;2023-05-07T04:54:35;14.52;;;12.13;;
62941;SDS011;49042;47.318;19.874;2023-05-07T05:01:05;13.02;;;10.43;;
62941;SDS011;49042;47.318;19.874;2023-05-07T05:07:17;13.48;;;11.12;;
62941;SDS011;49042;47.318;19.874;2023-05-07T05:10:33;20.48;;;11.82;;
62941;SDS011;49042;47.318;19.874;2023-05-07T05:13:35;16.55;;;11.10;;
62941;SDS011;49042;47.318;19.874;2023-05-07T05:16:42;14.87;;;11.10;;
62941;SDS011;49042;47.318;19.874;2023-05-07T05:19:48;13.62;;;11.05;;
62941;SDS011;49042;47.318;19.874;2023-05-07T05:22:50;14.38;;;10.48;;
62941;SDS011;49042;47.318;19.874;2023-05-07T05:25:57;16.45;;;11.48;;
62941;SDS011;49042;47.318;19.874;2023-05-07T05:29:04;16.67;;;10.77;;
62941;SDS011;49042;47.318;19.874;2023-05-07T05:35:13;15.87;;;11.10;;
62941;SDS011;49042;47.318;19.874;2023-05-07T05:38:15;14.93;;;12.07;;
62941;SDS011;49042;47.318;19.874;2023-05-07T05:41:22;15.98;;;12.50;;
62941;SDS011;49042;47.318;19.874;2023-05-07T05:44:31;16.40;;;12.43;;
62941;SDS011;49042;47.318;19.874;2023-05-07T05:47:33;17.50;;;11.35;;
62941;SDS011;49042;47.318;19.874;2023-05-07T05:50:36;16.95;;;12.25;;
62941;SDS011;49042;47.318;19.874;2023-05-07T05:57:03;14.10;;;10.35;;
62941;SDS011;49042;47.318;19.874;2023-05-07T06:00:07;16.55;;;10.15;;
62941;SDS011;49042;47.318;19.874;2023-05-07T06:03:12;13.35;;;10.73;;
62941;SDS011;49042;47.318;19.874;2023-05-07T06:06:24;18.17;;;10.00;;
62941;SDS011;49042;47.318;19.874;2023-05-07T06:09:32;15.65;;;11.02;;
62941;SDS011;49042;47.318;19.874;2023-05-07T06:12:33;18.73;;;11.07;;
62941;SDS011;49042;47.318;19.874;2023-05-07T06:15:40;23.00;;;10.48;;
62941;SDS011;49042;47.318;19.874;2023-05-07T06:22:03;12.90;;;9.30;;
62941;SDS011;49042;47.318;19.874;2023-05-07T06:25:05;14.23;;;8.60;;
62941;SDS011;49042;47.318;19.874;2023-05-07T06:28:07;14.90;;;9.60;;
62941;SDS011;49042;47.318;19.874;2023-05-07T06:31:15;13.57;;;8.63;;
62941;SDS011;49042;47.318;19.874;2023-05-07T06:34:24;10.98;;;8.38;;
62941;SDS011;49042;47.318;19.874;2023-05-07T06:37:26;11.12;;;7.30;;
62941;SDS011;49042;47.318;19.874;2023-05-07T06:40:29;9.48;;;7.15;;
62941;SDS011;49042;47.318;19.874;2023-05-07T06:43:31;9.18;;;7.12;;
62941;SDS011;49042;47.318;19.874;2023-05-07T06:49:43;10.27;;;7.28;;
62941;SDS011;49042;47.318;19.874;2023-05-07T06:52:50;12.07;;;8.10;;
62941;SDS011;49042;47.318;19.874;2023-05-07T07:06:02;10.80;;;6.78;;
62941;SDS011;49042;47.318;19.874;2023-05-07T07:12:18;13.32;;;6.95;;
62941;SDS011;49042;47.318;19.874;2023-05-07T07:22:00;10.15;;;7.12;;
62941;SDS011;49042;47.318;19.874;2023-05-07T07:34:49;7.30;;;5.45;;
62941;SDS011;49042;47.318;19.874;2023-05-07T07:38:05;10.90;;;5.43;;
62941;SDS011;49042;47.318;19.874;2023-05-07T07:41:09;6.25;;;5.07;;
62941;SDS011;49042;47.318;19.874;2023-05-07T07:44:11;12.43;;;4.90;;
62941;SDS011;49042;47.318;19.874;2023-05-07T07:50:35;7.62;;;4.95;;
62941;SDS011;49042;47.318;19.874;2023-05-07T07:53:45;5.78;;;4.12;;
62941;SDS011;49042;47.318;19.874;2023-05-07T07:56:49;8.45;;;3.97;;
62941;SDS011;49042;47.318;19.874;2023-05-07T07:59:53;7.07;;;4.07;;
62941;SDS011;49042;47.318;19.874;2023-05-07T08:02:56;9.43;;;4.10;;
62941;SDS011;49042;47.318;19.874;2023-05-07T08:05:58;6.07;;;4.05;;
62941;SDS011;49042;47.318;19.874;2023-05-07T08:09:01;5.43;;;3.50;;
62941;SDS011;49042;47.318;19.874;2023-05-07T08:12:03;5.37;;;3.85;;
62941;SDS011;49042;47.318;19.874;2023-05-07T08:15:11;3.97;;;3.17;;
62941;SDS011;49042;47.318;19.874;2023-05-07T08:18:12;4.78;;;3.50;;
62941;SDS011;49042;47.318;19.874;2023-05-07T08:21:14;5.72;;;2.95;;
62941;SDS011;49042;47.318;19.874;2023-05-07T08:24:16;7.07;;;3.37;;
62941;SDS011;49042;47.318;19.874;2023-05-07T08:27:19;4.57;;;3.47;;
62941;SDS011;49042;47.318;19.874;2023-05-07T08:30:21;3.35;;;3.05;;
62941;SDS011;49042;47.318;19.874;2023-05-07T08:33:23;8.80;;;3.87;;
62941;SDS011;49042;47.318;19.874;2023-05-07T08:36:25;6.53;;;2.97;;
62941;SDS011;49042;47.318;19.874;2023-05-07T08:39:27;9.65;;;3.28;;
62941;SDS011;49042;47.318;19.874;2023-05-07T08:42:28;6.72;;;3.92;;
62941;SDS011;49042;47.318;19.874;2023-05-07T08:45:32;4.00;;;3.60;;
62941;SDS011;49042;47.318;19.874;2023-05-07T08:48:35;6.87;;;3.85;;
62941;SDS011;49042;47.318;19.874;2023-05-07T08:51:37;5.07;;;3.28;;
62941;SDS011;49042;47.318;19.874;2023-05-07T08:54:39;4.05;;;2.92;;
62941;SDS011;49042;47.318;19.874;2023-05-07T08:57:43;3.53;;;3.20;;
62941;SDS011;49042;47.318;19.874;2023-05-07T09:00:44;5.45;;;3.28;;
62941;SDS011;49042;47.318;19.874;2023-05-07T09:03:49;3.83;;;3.37;;
62941;SDS011;49042;47.318;19.874;2023-05-07T09:06:51;4.20;;;2.97;;
62941;SDS011;49042;47.318;19.874;2023-05-07T09:09:53;6.87;;;3.70;;
62941;SDS011;49042;47.318;19.874;2023-05-07T09:12:56;5.18;;;3.25;;
62941;SDS011;49042;47.318;19.874;2023-05-07T09:15:58;4.37;;;3.65;;
62941;SDS011;49042;47.318;19.874;2023-05-07T09:19:11;10.55;;;3.30;;
62941;SDS011;49042;47.318;19.874;2023-05-07T09:22:13;4.00;;;3.60;;
62941;SDS011;49042;47.318;19.874;2023-05-07T09:25:15;4.57;;;3.42;;
62941;SDS011;49042;47.318;19.874;2023-05-07T09:28:29;5.70;;;3.58;;
62941;SDS011;49042;47.318;19.874;2023-05-07T09:31:31;6.72;;;3.50;;
62941;SDS011;49042;47.318;19.874;2023-05-07T09:34:33;6.72;;;3.80;;
62941;SDS011;49042;47.318;19.874;2023-05-07T09:37:35;6.55;;;3.67;;
62941;SDS011;49042;47.318;19.874;2023-05-07T09:40:37;6.72;;;3.60;;
62941;SDS011;49042;47.318;19.874;2023-05-07T09:43:39;4.93;;;3.78;;
62941;SDS011;49042;47.318;19.874;2023-05-07T09:46:42;5.65;;;3.50;;
62941;SDS011;49042;47.318;19.874;2023-05-07T09:49:46;4.28;;;3.60;;
62941;SDS011;49042;47.318;19.874;2023-05-07T09:52:49;5.78;;;3.83;;
62941;SDS011;49042;47.318;19.874;2023-05-07T09:55:51;5.55;;;3.40;;
62941;SDS011;49042;47.318;19.874;2023-05-07T09:58:54;4.50;;;3.70;;
62941;SDS011;49042;47.318;19.874;2023-05-07T10:01:58;4.65;;;3.45;;
62941;SDS011;49042;47.318;19.874;2023-05-07T10:05:03;8.40;;;4.07;;
62941;SDS011;49042;47.318;19.874;2023-05-07T10:08:06;4.50;;;3.65;;
62941;SDS011;49042;47.318;19.874;2023-05-07T10:11:09;4.40;;;3.47;;
62941;SDS011;49042;47.318;19.874;2023-05-07T10:14:11;4.57;;;3.80;;
62941;SDS011;49042;47.318;19.874;2023-05-07T10:17:13;7.37;;;3.65;;
62941;SDS011;49042;47.318;19.874;2023-05-07T10:20:19;3.55;;;3.25;;
62941;SDS011;49042;47.318;19.874;2023-05-07T10:23:22;3.87;;;3.30;;
62941;SDS011;49042;47.318;19.874;2023-05-07T10:26:26;8.60;;;3.55;;
62941;SDS011;49042;47.318;19.874;2023-05-07T10:29:33;6.68;;;3.70;;
62941;SDS011;49042;47.318;19.874;2023-05-07T10:32:47;3.87;;;3.22;;
62941;SDS011;49042;47.318;19.874;2023-05-07T10:35:58;6.25;;;3.30;;
62941;SDS011;49042;47.318;19.874;2023-05-07T10:39:02;2.85;;;2.55;;
62941;SDS011;49042;47.318;19.874;2023-05-07T10:42:07;4.00;;;3.10;;
62941;SDS011;49042;47.318;19.874;2023-05-07T10:45:13;7.47;;;3.40;;
62941;SDS011;49042;47.318;19.874;2023-05-07T10:48:16;11.38;;;3.65;;
62941;SDS011;49042;47.318;19.874;2023-05-07T10:51:30;6.20;;;3.50;;
62941;SDS011;49042;47.318;19.874;2023-05-07T10:54:33;3.42;;;2.90;;
62941;SDS011;49042;47.318;19.874;2023-05-07T10:57:38;7.00;;;3.60;;
62941;SDS011;49042;47.318;19.874;2023-05-07T11:00:42;4.55;;;3.45;;
62941;SDS011;49042;47.318;19.874;2023-05-07T11:07:26;3.33;;;2.92;;
62941;SDS011;49042;47.318;19.874;2023-05-07T11:10:48;5.82;;;3.00;;
62941;SDS011;49042;47.318;19.874;2023-05-07T11:13:50;7.93;;;4.10;;
62941;SDS011;49042;47.318;19.874;2023-05-07T11:16:52;3.65;;;3.28;;
62941;SDS011;49042;47.318;19.874;2023-05-07T11:20:06;3.92;;;3.40;;
62941;SDS011;49042;47.318;19.874;2023-05-07T11:23:08;4.75;;;3.33;;
62941;SDS011;49042;47.318;19.874;2023-05-07T11:26:30;7.90;;;4.15;;
62941;SDS011;49042;47.318;19.874;2023-05-07T11:29:44;5.62;;;3.92;;
62941;SDS011;49042;47.318;19.874;2023-05-07T11:32:48;5.23;;;4.20;;
62941;SDS011;49042;47.318;19.874;2023-05-07T11:35:51;7.75;;;4.07;;
62941;SDS011;49042;47.318;19.874;2023-05-07T11:38:55;7.82;;;5.10;;
62941;SDS011;49042;47.318;19.874;2023-05-07T11:41:57;28.42;;;6.68;;
62941;SDS011;49042;47.318;19.874;2023-05-07T11:44:59;12.75;;;2.92;;
62941;SDS011;49042;47.318;19.874;2023-05-07T11:48:01;5.15;;;2.60;;
62941;SDS011;49042;47.318;19.874;2023-05-07T11:51:04;8.98;;;2.05;;
62941;SDS011;49042;47.318;19.874;2023-05-07T11:54:08;34.83;;;3.22;;
62941;SDS011;49042;47.318;19.874;2023-05-07T11:57:14;11.50;;;3.00;;
62941;SDS011;49042;47.318;19.874;2023-05-07T12:32:51;0.30;;;0.30;;
62941;SDS011;49042;47.318;19.874;2023-05-07T13:51:23;0.93;;;0.93;;
62941;SDS011;49042;47.318;19.874;2023-05-07T13:54:24;0.20;;;0.20;;
62941;SDS011;49042;47.318;19.874;2023-05-07T13:57:26;0.47;;;0.47;;
62941;SDS011;49042;47.318;19.874;2023-05-07T14:00:28;1.00;;;0.40;;
62941;SDS011;49042;47.318;19.874;2023-05-07T14:03:30;0.57;;;0.57;;
62941;SDS011;49042;47.318;19.874;2023-05-07T14:06:33;0.30;;;0.30;;
62941;SDS011;49042;47.318;19.874;2023-05-07T14:09:35;0.30;;;0.30;;
62941;SDS011;49042;47.318;19.874;2023-05-07T14:12:36;0.20;;;0.20;;
62941;SDS011;49042;47.318;19.874;2023-05-07T14:15:38;0.30;;;0.30;;
62941;SDS011;49042;47.318;19.874;2023-05-07T14:18:40;0.28;;;0.28;;
62941;SDS011;49042;47.318;19.874;2023-05-07T14:21:43;0.30;;;0.30;;
62941;SDS011;49042;47.318;19.874;2023-05-07T14:24:45;0.30;;;0.30;;
62941;SDS011;49042;47.318;19.874;2023-05-07T14:27:53;0.20;;;0.20;;
62941;SDS011;49042;47.318;19.874;2023-05-07T14:30:54;0.20;;;0.20;;
62941;SDS011;49042;47.318;19.874;2023-05-07T14:33:56;0.32;;;0.32;;
62941;SDS011;49042;47.318;19.874;2023-05-07T14:36:59;0.20;;;0.20;;
62941;SDS011;49042;47.318;19.874;2023-05-07T14:40:01;0.20;;;0.20;;
62941;SDS011;49042;47.318;19.874;2023-05-07T14:43:04;0.20;;;0.20;;
62941;SDS011;49042;47.318;19.874;2023-05-07T14:46:05;0.20;;;0.20;;
62941;SDS011;49042;47.318;19.874;2023-05-07T14:49:07;0.20;;;0.20;;
62941;SDS011;49042;47.318;19.874;2023-05-07T14:52:12;0.30;;;0.30;;
62941;SDS011;49042;47.318;19.874;2023-05-07T14:55:14;0.30;;;0.30;;
62941;SDS011;49042;47.318;19.874;2023-05-07T14:58:15;0.20;;;0.20;;
62941;SDS011;49042;47.318;19.874;2023-05-07T15:01:17;0.30;;;0.30;;
62941;SDS011;49042;47.318;19.874;2023-05-07T15:04:19;0.20;;;0.20;;
62941;SDS011;49042;47.318;19.874;2023-05-07T15:07:21;0.30;;;0.30;;
62941;SDS011;49042;47.318;19.874;2023-05-07T15:10:22;0.20;;;0.20;;
62941;SDS011;49042;47.318;19.874;2023-05-07T15:13:24;0.57;;;0.57;;
62941;SDS011;49042;47.318;19.874;2023-05-07T15:16:26;0.45;;;0.45;;
62941;SDS011;49042;47.318;19.874;2023-05-07T15:19:27;0.20;;;0.20;;
62941;SDS011;49042;47.318;19.874;2023-05-07T15:22:30;0.20;;;0.20;;
62941;SDS011;49042;47.318;19.874;2023-05-07T15:25:32;0.20;;;0.20;;
62941;SDS011;49042;47.318;19.874;2023-05-07T15:28:35;0.60;;;0.60;;
62941;SDS011;49042;47.318;19.874;2023-05-07T15:31:36;0.20;;;0.20;;
62941;SDS011;49042;47.318;19.874;2023-05-07T15:34:41;0.20;;;0.20;;
62941;SDS011;49042;47.318;19.874;2023-05-07T15:37:42;0.20;;;0.20;;
62941;SDS011;49042;47.318;19.874;2023-05-07T15:40:44;0.20;;;0.20;;
62941;SDS011;49042;47.318;19.874;2023-05-07T15:43:47;0.20;;;0.20;;
62941;SDS011;49042;47.318;19.874;2023-05-07T15:46:49;0.17;;;0.17;;
62941;SDS011;49042;47.318;19.874;2023-05-07T15:49:51;0.20;;;0.20;;
62941;SDS011;49042;47.318;19.874;2023-05-07T15:52:54;0.25;;;0.25;;
62941;SDS011;49042;47.318;19.874;2023-05-07T15:55:55;0.10;;;0.10;;
62941;SDS011;49042;47.318;19.874;2023-05-07T15:58:57;0.43;;;0.40;;
62941;SDS011;49042;47.318;19.874;2023-05-07T16:02:00;0.20;;;0.20;;
62941;SDS011;49042;47.318;19.874;2023-05-07T16:05:02;0.20;;;0.20;;
62941;SDS011;49042;47.318;19.874;2023-05-07T16:08:03;0.20;;;0.20;;
62941;SDS011;49042;47.318;19.874;2023-05-07T16:11:05;0.10;;;0.10;;
62941;SDS011;49042;47.318;19.874;2023-05-07T16:14:07;0.20;;;0.20;;
62941;SDS011;49042;47.318;19.874;2023-05-07T16:17:08;0.10;;;0.10;;
62941;SDS011;49042;47.318;19.874;2023-05-07T16:20:10;0.20;;;0.20;;
62941;SDS011;49042;47.318;19.874;2023-05-07T16:23:13;0.20;;;0.20;;
62941;SDS011;49042;47.318;19.874;2023-05-07T16:26:15;0.20;;;0.20;;
62941;SDS011;49042;47.318;19.874;2023-05-07T16:29:16;0.20;;;0.20;;
62941;SDS011;49042;47.318;19.874;2023-05-07T16:32:19;0.20;;;0.20;;
62941;SDS011;49042;47.318;19.874;2023-05-07T16:35:21;0.25;;;0.25;;
62941;SDS011;49042;47.318;19.874;2023-05-07T16:38:22;0.32;;;0.32;;
62941;SDS011;49042;47.318;19.874;2023-05-07T16:41:24;0.32;;;0.30;;
62941;SDS011;49042;47.318;19.874;2023-05-07T16:44:26;0.20;;;0.20;;
62941;SDS011;49042;47.318;19.874;2023-05-07T16:47:28;0.20;;;0.20;;
62941;SDS011;49042;47.318;19.874;2023-05-07T16:50:29;0.30;;;0.30;;
62941;SDS011;49042;47.318;19.874;2023-05-07T16:53:31;0.20;;;0.20;;
62941;SDS011;49042;47.318;19.874;2023-05-07T16:56:33;0.32;;;0.32;;
62941;SDS011;49042;47.318;19.874;2023-05-07T16:59:34;0.20;;;0.20;;
62941;SDS011;49042;47.318;19.874;2023-05-07T17:02:36;0.20;;;0.20;;
62941;SDS011;49042;47.318;19.874;2023-05-07T17:05:37;0.20;;;0.20;;
62941;SDS011;49042;47.318;19.874;2023-05-07T17:08:40;0.30;;;0.30;;
62941;SDS011;49042;47.318;19.874;2023-05-07T17:11:43;0.45;;;0.45;;
62941;SDS011;49042;47.318;19.874;2023-05-07T17:14:45;0.20;;;0.20;;
62941;SDS011;49042;47.318;19.874;2023-05-07T17:17:46;0.50;;;0.50;;
62941;SDS011;49042;47.318;19.874;2023-05-07T17:20:48;0.20;;;0.20;;
62941;SDS011;49042;47.318;19.874;2023-05-07T17:23:49;0.62;;;0.62;;
62941;SDS011;49042;47.318;19.874;2023-05-07T17:26:51;0.50;;;0.50;;
62941;SDS011;49042;47.318;19.874;2023-05-07T17:29:53;0.20;;;0.20;;
62941;SDS011;49042;47.318;19.874;2023-05-07T17:32:54;0.55;;;0.55;;
62941;SDS011;49042;47.318;19.874;2023-05-07T17:36:09;0.85;;;0.57;;
62941;SDS011;49042;47.318;19.874;2023-05-07T17:39:11;0.20;;;0.20;;
62941;SDS011;49042;47.318;19.874;2023-05-07T17:42:13;0.30;;;0.30;;
62941;SDS011;49042;47.318;19.874;2023-05-07T17:45:14;0.32;;;0.32;;
62941;SDS011;49042;47.318;19.874;2023-05-07T17:48:16;11.90;;;2.70;;
62941;SDS011;49042;47.318;19.874;2023-05-07T17:51:18;0.20;;;0.20;;
62941;SDS011;49042;47.318;19.874;2023-05-07T17:54:20;1.02;;;1.02;;
62941;SDS011;49042;47.318;19.874;2023-05-07T17:57:24;0.37;;;0.37;;
62941;SDS011;49042;47.318;19.874;2023-05-07T18:00:27;1.00;;;1.00;;
62941;SDS011;49042;47.318;19.874;2023-05-07T18:03:28;0.30;;;0.30;;
62941;SDS011;49042;47.318;19.874;2023-05-07T18:06:31;0.22;;;0.22;;
62941;SDS011;49042;47.318;19.874;2023-05-07T18:09:32;0.37;;;0.37;;
62941;SDS011;49042;47.318;19.874;2023-05-07T18:12:34;0.85;;;0.85;;
62941;SDS011;49042;47.318;19.874;2023-05-07T18:15:36;0.60;;;0.60;;
62941;SDS011;49042;47.318;19.874;2023-05-07T18:18:37;0.30;;;0.30;;
62941;SDS011;49042;47.318;19.874;2023-05-07T18:21:39;0.30;;;0.30;;
62941;SDS011;49042;47.318;19.874;2023-05-07T18:24:41;0.40;;;0.40;;
62941;SDS011;49042;47.318;19.874;2023-05-07T18:27:42;0.30;;;0.30;;
62941;SDS011;49042;47.318;19.874;2023-05-07T18:30:44;0.40;;;0.40;;
62941;SDS011;49042;47.318;19.874;2023-05-07T18:33:46;0.30;;;0.30;;
62941;SDS011;49042;47.318;19.874;2023-05-07T18:36:48;1.73;;;0.95;;
62941;SDS011;49042;47.318;19.874;2023-05-07T18:39:49;0.30;;;0.30;;
62941;SDS011;49042;47.318;19.874;2023-05-07T18:42:51;0.30;;;0.30;;
62941;SDS011;49042;47.318;19.874;2023-05-07T18:45:53;0.35;;;0.35;;
62941;SDS011;49042;47.318;19.874;2023-05-07T18:48:56;0.20;;;0.20;;
62941;SDS011;49042;47.318;19.874;2023-05-07T18:51:58;0.40;;;0.40;;
62941;SDS011;49042;47.318;19.874;2023-05-07T18:55:00;0.20;;;0.20;;
62941;SDS011;49042;47.318;19.874;2023-05-07T18:58:02;0.40;;;0.40;;
62941;SDS011;49042;47.318;19.874;2023-05-07T19:01:04;0.90;;;0.57;;
62941;SDS011;49042;47.318;19.874;2023-05-07T19:04:11;0.30;;;0.30;;
62941;SDS011;49042;47.318;19.874;2023-05-07T19:07:14;0.50;;;0.50;;
62941;SDS011;49042;47.318;19.874;2023-05-07T19:10:17;0.30;;;0.30;;
62941;SDS011;49042;47.318;19.874;2023-05-07T19:13:27;0.30;;;0.30;;
62941;SDS011;49042;47.318;19.874;2023-05-07T19:16:31;0.30;;;0.30;;
62941;SDS011;49042;47.318;19.874;2023-05-07T19:19:34;0.40;;;0.40;;
62941;SDS011;49042;47.318;19.874;2023-05-07T19:22:37;0.30;;;0.30;;
62941;SDS011;49042;47.318;19.874;2023-05-07T19:25:41;0.30;;;0.30;;
62941;SDS011;49042;47.318;19.874;2023-05-07T19:28:42;3.22;;;1.20;;
62941;SDS011;49042;47.318;19.874;2023-05-07T19:31:46;0.30;;;0.30;;
62941;SDS011;49042;47.318;19.874;2023-05-07T19:34:47;0.30;;;0.30;;
62941;SDS011;49042;47.318;19.874;2023-05-07T19:37:50;2.42;;;2.22;;
62941;SDS011;49042;47.318;19.874;2023-05-07T19:41:09;0.40;;;0.40;;
62941;SDS011;49042;47.318;19.874;2023-05-07T19:44:12;0.30;;;0.30;;
62941;SDS011;49042;47.318;19.874;2023-05-07T19:47:14;0.30;;;0.30;;
62941;SDS011;49042;47.318;19.874;2023-05-07T19:50:18;2.22;;;1.92;;
62941;SDS011;49042;47.318;19.874;2023-05-07T19:53:21;0.40;;;0.40;;
62941;SDS011;49042;47.318;19.874;2023-05-07T19:56:23;0.30;;;0.30;;
62941;SDS011;49042;47.318;19.874;2023-05-07T19:59:31;0.30;;;0.30;;
62941;SDS011;49042;47.318;19.874;2023-05-07T20:02:33;10.15;;;1.77;;
62941;SDS011;49042;47.318;19.874;2023-05-07T20:05:35;0.30;;;0.30;;
62941;SDS011;49042;47.318;19.874;2023-05-07T20:08:37;0.30;;;0.30;;
62941;SDS011;49042;47.318;19.874;2023-05-07T20:11:38;0.30;;;0.30;;
62941;SDS011;49042;47.318;19.874;2023-05-07T20:14:40;0.30;;;0.30;;
62941;SDS011;49042;47.318;19.874;2023-05-07T20:17:43;0.30;;;0.30;;
62941;SDS011;49042;47.318;19.874;2023-05-07T20:20:45;0.30;;;0.30;;
62941;SDS011;49042;47.318;19.874;2023-05-07T20:23:46;0.30;;;0.30;;
62941;SDS011;49042;47.318;19.874;2023-05-07T20:26:48;0.40;;;0.40;;
62941;SDS011;49042;47.318;19.874;2023-05-07T20:29:50;0.35;;;0.35;;
62941;SDS011;49042;47.318;19.874;2023-05-07T20:32:52;0.40;;;0.40;;
62941;SDS011;49042;47.318;19.874;2023-05-07T20:35:56;0.30;;;0.30;;
62941;SDS011;49042;47.318;19.874;2023-05-07T20:38:58;0.30;;;0.30;;
62941;SDS011;49042;47.318;19.874;2023-05-07T20:41:59;0.30;;;0.30;;
62941;SDS011;49042;47.318;19.874;2023-05-07T20:45:01;0.30;;;0.30;;
62941;SDS011;49042;47.318;19.874;2023-05-07T20:48:04;0.20;;;0.20;;
62941;SDS011;49042;47.318;19.874;2023-05-07T20:51:06;0.30;;;0.30;;
62941;SDS011;49042;47.318;19.874;2023-05-07T20:54:10;0.30;;;0.30;;
62941;SDS011;49042;47.318;19.874;2023-05-07T20:57:13;0.30;;;0.30;;
62941;SDS011;49042;47.318;19.874;2023-05-07T21:00:14;0.30;;;0.30;;
62941;SDS011;49042;47.318;19.874;2023-05-07T21:03:17;0.30;;;0.30;;